createdAt,value
2019-04-04T00:01:30.892Z,7.15
2019-04-04T00:03:57.851Z,7.21
2019-04-04T00:06:26.711Z,7.14
2019-04-04T00:08:53.683Z,7.21
2019-04-04T00:11:20.601Z,7.25
2019-04-04T00:13:47.535Z,7.01
2019-04-04T00:16:15.903Z,7.05
2019-04-04T00:18:43.303Z,7.09
2019-04-04T00:21:10.209Z,7.12
2019-04-04T00:23:37.956Z,7.03
2019-04-04T00:26:05.585Z,7.02
2019-04-04T00:28:32.548Z,7.07
2019-04-04T00:30:59.473Z,7.10
2019-04-04T00:33:26.438Z,7.25
2019-04-04T00:35:53.364Z,7.15
2019-04-04T00:38:20.287Z,7.12
2019-04-04T00:40:47.205Z,7.09
2019-04-04T00:43:14.157Z,7.08
2019-04-04T00:45:41.069Z,7.00
2019-04-04T00:48:07.993Z,7.05
2019-04-04T00:50:36.822Z,7.16
2019-04-04T00:53:03.818Z,7.09
2019-04-04T00:55:30.779Z,7.01
2019-04-04T00:57:57.718Z,7.03
2019-04-04T01:00:24.678Z,7.02
2019-04-04T01:02:51.581Z,7.05
2019-04-04T01:05:18.506Z,7.06
2019-04-04T01:07:45.415Z,7.07
2019-04-04T01:10:12.464Z,6.98
2019-04-04T01:12:39.407Z,6.96
2019-04-04T01:15:06.503Z,6.87
2019-04-04T01:17:35.026Z,6.79
2019-04-04T01:20:02.553Z,6.86
2019-04-04T01:22:29.448Z,6.85
2019-04-04T01:24:56.403Z,6.86
2019-04-04T01:27:23.315Z,6.93
2019-04-04T01:29:50.251Z,7.00
2019-04-04T01:32:17.690Z,6.92
2019-04-04T01:34:44.612Z,6.78
2019-04-04T01:37:11.514Z,6.75
2019-04-04T01:39:38.520Z,6.91
2019-04-04T01:42:07.284Z,6.80
2019-04-04T01:44:34.712Z,6.71
2019-04-04T01:47:01.621Z,6.69
2019-04-04T01:49:28.549Z,6.72
2019-04-04T01:51:57.744Z,6.71
2019-04-04T01:54:24.395Z,6.68
2019-04-04T01:56:51.305Z,6.71
2019-04-04T01:59:18.279Z,6.73
2019-04-04T02:01:46.886Z,6.60
2019-04-04T02:04:14.049Z,6.47
2019-04-04T02:06:40.955Z,6.45
2019-04-04T02:09:07.912Z,6.52
2019-04-04T02:11:37.302Z,6.56
2019-04-04T02:14:03.778Z,6.42
2019-04-04T02:16:30.749Z,6.43
2019-04-04T02:18:57.668Z,6.39
2019-04-04T02:21:24.627Z,6.41
2019-04-04T02:23:51.550Z,6.41
2019-04-04T02:26:18.849Z,6.38
2019-04-04T02:28:45.822Z,6.22
2019-04-04T02:31:13.325Z,6.22
2019-04-04T02:33:40.423Z,6.27
2019-04-04T02:36:07.429Z,6.25
2019-04-04T02:38:34.397Z,6.06
2019-04-04T02:41:01.387Z,6.10
2019-04-04T02:43:28.708Z,6.15
2019-04-04T02:45:55.705Z,6.23
2019-04-04T02:48:24.559Z,6.14
2019-04-04T02:50:51.565Z,6.11
2019-04-04T02:53:20.379Z,6.03
2019-04-04T02:55:47.505Z,5.86
2019-04-04T02:58:15.416Z,5.91
2019-04-04T03:00:42.494Z,5.84
2019-04-04T03:03:09.635Z,5.80
2019-04-04T03:05:36.595Z,5.83
2019-04-04T03:08:04.560Z,5.83
2019-04-04T03:10:31.813Z,5.85
2019-04-04T03:12:59.470Z,5.81
2019-04-04T03:15:26.728Z,5.79
2019-04-04T03:17:53.816Z,5.72
2019-04-04T03:20:20.807Z,5.73
2019-04-04T03:22:47.837Z,5.78
2019-04-04T03:25:15.736Z,5.72
2019-04-04T03:27:42.800Z,5.73
2019-04-04T03:30:14.676Z,5.68
2019-04-04T03:32:38.675Z,5.62
2019-04-04T03:35:06.058Z,5.57
2019-04-04T03:37:32.998Z,5.34
2019-04-04T03:39:59.933Z,5.30
2019-04-04T03:42:26.905Z,5.27
2019-04-04T03:44:54.525Z,5.32
2019-04-04T03:47:21.713Z,5.35
2019-04-04T03:49:48.652Z,5.52
2019-04-04T03:52:15.630Z,5.63
2019-04-04T03:54:42.571Z,5.57
2019-04-04T03:57:12.106Z,5.46
2019-04-04T03:59:38.497Z,5.46
2019-04-04T04:02:05.478Z,5.30
2019-04-04T04:04:32.421Z,5.24
2019-04-04T04:06:59.399Z,5.28
2019-04-04T04:09:27.298Z,5.41
2019-04-04T04:11:54.419Z,5.40
2019-04-04T04:14:22.106Z,5.52
2019-04-04T04:16:51.208Z,5.23
2019-04-04T04:19:18.099Z,5.11
2019-04-04T04:21:45.079Z,5.17
2019-04-04T04:24:12.018Z,5.17
2019-04-04T04:26:41.880Z,5.25
2019-04-04T04:29:07.853Z,5.18
2019-04-04T04:31:34.851Z,5.13
2019-04-04T04:34:01.990Z,5.18
2019-04-04T04:36:29.003Z,5.26
2019-04-04T04:39:00.061Z,5.30
2019-04-04T04:41:24.837Z,5.20
2019-04-04T04:43:51.794Z,5.33
2019-04-04T04:46:18.787Z,5.34
2019-04-04T04:48:45.732Z,5.30
2019-04-04T04:51:12.838Z,5.23
2019-04-04T04:53:39.818Z,5.14
2019-04-04T04:56:06.808Z,5.17
2019-04-04T04:58:33.799Z,5.17
2019-04-04T05:01:01.687Z,5.28
2019-04-04T05:03:28.626Z,5.34
2019-04-04T05:05:55.876Z,5.43
2019-04-04T05:08:22.850Z,5.44
2019-04-04T05:10:49.814Z,5.43
2019-04-04T05:13:16.811Z,5.38
2019-04-04T05:15:43.755Z,5.42
2019-04-04T05:18:12.039Z,5.50
2019-04-04T05:20:39.089Z,5.60
2019-04-04T05:23:06.076Z,5.51
2019-04-04T05:25:33.016Z,5.35
2019-04-04T05:28:00.014Z,5.25
2019-04-04T05:30:26.946Z,5.20
2019-04-04T05:32:56.371Z,5.26
2019-04-04T05:35:22.774Z,5.29
2019-04-04T05:37:49.741Z,5.38
2019-04-04T05:40:16.781Z,5.64
2019-04-04T05:42:43.777Z,5.76
2019-04-04T05:45:13.955Z,5.37
2019-04-04T05:47:39.979Z,5.35
2019-04-04T05:50:07.060Z,5.54
2019-04-04T05:52:34.010Z,5.56
2019-04-04T05:55:00.957Z,5.52
2019-04-04T05:57:27.981Z,5.59
2019-04-04T05:59:55.954Z,5.40
2019-04-04T06:02:23.156Z,5.31
2019-04-04T06:04:51.361Z,5.32
2019-04-04T06:07:19.012Z,5.42
2019-04-04T06:09:46.879Z,5.38
2019-04-04T06:12:14.139Z,5.49
2019-04-04T06:14:41.073Z,5.47
2019-04-04T06:17:08.043Z,5.51
2019-04-04T06:19:34.992Z,5.64
2019-04-04T06:22:01.962Z,5.63
2019-04-04T06:24:28.903Z,5.72
2019-04-04T06:26:55.906Z,5.90
2019-04-04T06:29:22.834Z,5.77
2019-04-04T06:31:49.777Z,5.61
2019-04-04T06:34:16.755Z,5.60
2019-04-04T06:36:43.731Z,5.66
2019-04-04T06:39:10.718Z,5.67
2019-04-04T06:41:37.723Z,5.53
2019-04-04T06:44:04.763Z,5.82
2019-04-04T06:46:31.732Z,5.75
2019-04-04T06:48:58.721Z,5.73
2019-04-04T06:51:25.665Z,5.72
2019-04-04T06:53:53.790Z,5.94
2019-04-04T06:56:21.476Z,6.07
2019-04-04T06:58:48.487Z,6.03
2019-04-04T07:01:15.433Z,5.95
2019-04-04T07:03:42.440Z,5.93
2019-04-04T07:06:10.204Z,5.96
2019-04-04T07:08:37.902Z,6.04
2019-04-04T07:11:15.528Z,6.11
2019-04-04T07:13:42.178Z,6.04
2019-04-04T07:16:06.765Z,6.19
2019-04-04T07:18:32.260Z,6.06
2019-04-04T07:20:59.362Z,6.12
2019-04-04T07:23:28.300Z,6.44
2019-04-04T07:25:55.199Z,6.29
2019-04-04T07:28:22.179Z,6.54
2019-04-04T07:30:49.124Z,6.37
2019-04-04T07:33:16.095Z,6.46
2019-04-04T07:35:43.073Z,6.43
2019-04-04T07:38:10.122Z,6.41
2019-04-04T07:40:37.450Z,6.26
2019-04-04T07:43:04.456Z,6.31
2019-04-04T07:45:31.436Z,6.38
2019-04-04T07:47:58.476Z,6.52
2019-04-04T07:50:26.278Z,6.43
2019-04-04T07:52:54.202Z,6.43
2019-04-04T07:55:21.149Z,6.44
2019-04-04T07:57:50.895Z,6.42
2019-04-04T08:00:17.028Z,6.35
2019-04-04T08:02:44.034Z,6.30
2019-04-04T08:05:13.188Z,6.37
2019-04-04T08:07:39.951Z,6.39
2019-04-04T08:10:19.579Z,6.39
2019-04-04T08:12:36.074Z,6.47
2019-04-04T08:15:03.339Z,6.63
2019-04-04T08:17:30.365Z,6.71
2019-04-04T08:19:59.813Z,6.44
2019-04-04T08:22:26.226Z,6.52
2019-04-04T08:24:53.201Z,6.68
2019-04-04T08:27:20.142Z,6.67
2019-04-04T08:29:47.420Z,6.84
2019-04-04T08:32:14.385Z,6.95
2019-04-04T08:34:41.550Z,6.92
2019-04-04T08:37:08.489Z,6.75
2019-04-04T08:39:35.546Z,6.66
2019-04-04T08:42:02.481Z,6.58
2019-04-04T08:44:29.473Z,6.65
2019-04-04T08:46:56.479Z,6.53
2019-04-04T08:49:23.432Z,6.54
2019-04-04T08:51:50.399Z,6.58
2019-04-04T08:54:17.375Z,6.52
2019-04-04T08:56:44.521Z,6.55
2019-04-04T08:59:11.572Z,6.54
2019-04-04T09:01:38.553Z,6.59
2019-04-04T09:04:07.348Z,6.60
2019-04-04T09:06:34.434Z,6.58
2019-04-04T09:09:02.249Z,6.61
2019-04-04T09:11:29.197Z,6.62
2019-04-04T09:13:56.172Z,6.68
2019-04-04T09:16:23.136Z,6.69
2019-04-04T09:18:50.206Z,6.69
2019-04-04T09:21:19.001Z,6.82
2019-04-04T09:23:45.968Z,6.96
2019-04-04T09:26:12.942Z,6.77
2019-04-04T09:28:39.899Z,6.81
2019-04-04T09:31:06.995Z,6.88
2019-04-04T09:33:34.067Z,6.77
2019-04-04T09:36:03.613Z,6.60
2019-04-04T09:38:31.216Z,6.58
2019-04-04T09:40:58.678Z,6.57
2019-04-04T09:43:26.700Z,6.53
2019-04-04T09:45:53.683Z,6.57
2019-04-04T09:48:20.710Z,6.63
2019-04-04T09:50:47.689Z,6.68
2019-04-04T09:53:15.587Z,6.76
2019-04-04T09:55:42.567Z,6.65
2019-04-04T09:58:09.670Z,6.72
2019-04-04T10:00:36.672Z,6.80
2019-04-04T10:03:03.721Z,6.83
2019-04-04T10:05:30.831Z,6.75
2019-04-04T10:07:58.966Z,6.77
2019-04-04T10:10:25.950Z,6.67
2019-04-04T10:12:52.893Z,6.86
2019-04-04T10:15:20.090Z,6.90
2019-04-04T10:17:49.377Z,6.96
2019-04-04T10:20:15.994Z,6.82
2019-04-04T10:22:43.092Z,6.77
2019-04-04T10:25:10.330Z,6.82
2019-04-04T10:27:37.286Z,6.85
2019-04-04T10:30:05.323Z,6.85
2019-04-04T10:32:32.273Z,6.91
2019-04-04T10:34:59.269Z,6.99
2019-04-04T10:37:26.209Z,6.85
2019-04-04T10:39:53.188Z,6.77
2019-04-04T10:42:20.255Z,6.75
2019-04-04T10:44:47.287Z,6.77
2019-04-04T10:47:14.231Z,6.87
2019-04-04T10:49:41.189Z,6.81
2019-04-04T10:52:08.153Z,6.83
2019-04-04T10:54:35.109Z,6.77
2019-04-04T10:57:03.476Z,6.81
2019-04-04T10:59:30.460Z,6.81
2019-04-04T11:01:59.470Z,6.70
2019-04-04T11:04:26.256Z,6.64
2019-04-04T11:06:53.245Z,6.68
2019-04-04T11:09:20.177Z,6.70
2019-04-04T11:11:47.160Z,6.75
2019-04-04T11:14:14.118Z,6.77
2019-04-04T11:16:41.133Z,6.86
2019-04-04T11:19:09.728Z,6.99
2019-04-04T11:21:36.866Z,7.03
2019-04-04T11:24:03.980Z,7.08
2019-04-04T11:26:31.568Z,6.97
2019-04-04T11:28:58.539Z,7.03
2019-04-04T11:31:25.517Z,7.15
2019-04-04T11:33:52.480Z,7.20
2019-04-04T11:36:19.825Z,7.29
2019-04-04T11:38:46.771Z,7.24
2019-04-04T11:41:14.115Z,7.29
2019-04-04T11:43:41.507Z,7.31
2019-04-04T11:46:09.170Z,7.15
2019-04-04T11:48:36.203Z,7.24
2019-04-04T11:51:03.443Z,7.20
2019-04-04T11:53:31.032Z,7.37
2019-04-04T11:55:58.172Z,7.28
2019-04-04T11:58:25.137Z,7.36
2019-04-04T12:00:53.699Z,7.54
2019-04-04T12:03:20.681Z,7.44
2019-04-04T12:05:47.661Z,7.40
2019-04-04T12:08:14.954Z,7.36
2019-04-04T12:10:41.928Z,7.46
2019-04-04T12:13:08.871Z,7.38
2019-04-04T12:15:35.954Z,7.45
2019-04-04T12:18:02.969Z,7.52
2019-04-04T12:20:30.033Z,7.29
2019-04-04T12:22:56.987Z,7.43
2019-04-04T12:25:24.107Z,7.37
2019-04-04T12:27:51.148Z,7.31
2019-04-04T12:30:20.579Z,7.42
2019-04-04T12:32:47.250Z,7.51
2019-04-04T12:35:14.494Z,7.31
2019-04-04T12:37:41.511Z,7.32
2019-04-04T12:40:19.922Z,7.35
2019-04-04T12:42:38.194Z,7.39
2019-04-04T12:45:05.972Z,7.37
2019-04-04T12:47:33.174Z,7.32
2019-04-04T12:50:00.110Z,7.41
2019-04-04T12:52:40.775Z,7.34
2019-04-04T12:55:07.831Z,7.43
2019-04-04T12:57:35.012Z,7.48
2019-04-04T13:00:04.403Z,7.45
2019-04-04T13:02:31.733Z,7.41
2019-04-04T13:04:58.996Z,7.48
2019-04-04T13:07:26.196Z,7.36
2019-04-04T13:09:53.205Z,7.46
2019-04-04T13:12:20.195Z,7.45
2019-04-04T13:14:47.147Z,7.60
2019-04-04T13:17:14.129Z,7.57
2019-04-04T13:19:41.082Z,7.46
2019-04-04T13:22:08.442Z,7.53
2019-04-04T13:24:35.483Z,7.50
2019-04-04T13:27:02.484Z,7.68
2019-04-04T13:29:30.160Z,7.70
2019-04-04T13:31:57.535Z,7.78
2019-04-04T13:34:24.528Z,7.57
2019-04-04T13:36:51.503Z,7.56
2019-04-04T13:39:18.454Z,7.53
2019-04-04T13:41:45.423Z,7.67
2019-04-04T13:44:12.488Z,7.69
2019-04-04T13:46:39.476Z,7.58
2019-04-04T13:49:06.411Z,7.66
2019-04-04T13:51:33.351Z,7.74
2019-04-04T13:54:00.439Z,7.73
2019-04-04T13:56:29.207Z,7.65
2019-04-04T13:58:56.369Z,7.68
2019-04-04T14:01:25.569Z,7.58
2019-04-04T14:03:52.735Z,7.56
2019-04-04T14:06:19.678Z,7.74
2019-04-04T14:08:46.757Z,7.63
2019-04-04T14:11:13.730Z,7.54
2019-04-04T14:13:40.710Z,7.61
2019-04-04T14:16:07.735Z,7.70
2019-04-04T14:18:39.711Z,7.67
2019-04-04T14:21:04.328Z,7.64
2019-04-04T14:23:32.773Z,7.80
2019-04-04T14:26:00.575Z,7.70
2019-04-04T14:28:28.560Z,7.79
2019-04-04T14:30:56.207Z,7.82
2019-04-04T14:33:23.202Z,7.52
2019-04-04T14:35:50.145Z,7.54
2019-04-04T14:38:17.143Z,7.71
2019-04-04T14:40:44.088Z,7.58
2019-04-04T14:43:11.065Z,7.53
2019-04-04T14:45:37.989Z,7.62
2019-04-04T14:48:05.271Z,7.42
2019-04-04T14:50:32.429Z,7.23
2019-04-04T14:52:59.400Z,7.37
2019-04-04T14:55:27.584Z,7.23
2019-04-04T14:57:54.563Z,7.23
2019-04-04T15:00:21.722Z,7.20
2019-04-04T15:02:49.030Z,7.28
2019-04-04T15:05:17.780Z,7.21
2019-04-04T15:07:44.818Z,7.46
2019-04-04T15:10:11.982Z,7.22
2019-04-04T15:12:39.087Z,7.03
2019-04-04T15:15:06.798Z,7.09
2019-04-04T15:17:33.756Z,7.09
2019-04-04T15:20:00.713Z,7.00
2019-04-04T15:22:27.708Z,7.14
2019-04-04T15:24:54.726Z,7.08
2019-04-04T15:27:21.674Z,7.14
2019-04-04T15:29:49.465Z,6.96
2019-04-04T15:32:16.501Z,7.08
2019-04-04T15:34:45.299Z,6.87
2019-04-04T15:37:12.417Z,6.77
2019-04-04T15:39:39.395Z,6.80
2019-04-04T15:42:06.432Z,6.73
2019-04-04T15:44:33.428Z,6.57
2019-04-04T15:47:00.377Z,6.49
2019-04-04T15:49:27.379Z,6.59
2019-04-04T15:51:54.782Z,6.66
2019-04-04T15:54:21.791Z,6.61
2019-04-04T15:56:48.791Z,6.74
2019-04-04T15:59:15.904Z,6.73
2019-04-04T16:01:43.276Z,6.70
2019-04-04T16:04:10.578Z,6.71
2019-04-04T16:06:39.327Z,6.68
2019-04-04T16:09:06.745Z,6.65
2019-04-04T16:11:33.980Z,6.70
2019-04-04T16:14:01.721Z,6.71
2019-04-04T16:16:28.689Z,6.60
2019-04-04T16:18:55.715Z,6.53
2019-04-04T16:21:22.677Z,6.47
2019-04-04T16:23:49.670Z,6.61
2019-04-04T16:26:16.664Z,6.49
2019-04-04T16:28:44.887Z,6.48
2019-04-04T16:31:11.885Z,6.54
2019-04-04T16:33:38.857Z,6.61
2019-04-04T16:36:06.001Z,6.68
2019-04-04T16:38:33.031Z,6.77
2019-04-04T16:41:00.516Z,6.72
2019-04-04T16:43:27.755Z,6.78
2019-04-04T16:45:54.871Z,6.67
2019-04-04T16:48:21.881Z,6.57
2019-04-04T16:50:48.855Z,6.57
2019-04-04T16:53:15.837Z,6.48
2019-04-04T16:55:42.831Z,6.52
2019-04-04T16:58:09.799Z,6.32
2019-04-04T17:00:36.991Z,6.50
2019-04-04T17:03:04.244Z,6.47
2019-04-04T17:05:31.346Z,6.38
2019-04-04T17:07:58.404Z,6.39
2019-04-04T17:10:27.981Z,6.36
2019-04-04T17:12:56.045Z,6.25
2019-04-04T17:15:23.033Z,6.30
2019-04-04T17:17:49.995Z,6.35
2019-04-04T17:20:24.910Z,6.51
2019-04-04T17:22:51.919Z,6.44
2019-04-04T17:25:18.917Z,6.42
2019-04-04T17:27:45.878Z,6.39
2019-04-04T17:30:15.121Z,6.41
2019-04-04T17:32:42.291Z,6.44
2019-04-04T17:35:09.633Z,6.61
2019-04-04T17:37:36.582Z,6.54
2019-04-04T17:40:06.141Z,6.45
2019-04-04T17:42:35.323Z,6.41
2019-04-04T17:45:04.854Z,6.35
2019-04-04T17:47:31.861Z,6.28
2019-04-04T17:49:59.170Z,6.22
2019-04-04T17:52:26.618Z,6.30
2019-04-04T17:54:53.659Z,6.28
2019-04-04T17:57:20.623Z,6.30
2019-04-04T17:59:47.644Z,6.26
2019-04-04T18:02:14.677Z,6.35
2019-04-04T18:04:48.170Z,6.25
2019-04-04T18:07:10.597Z,6.15
2019-04-04T18:09:37.848Z,6.15
2019-04-04T18:12:04.798Z,6.35
2019-04-04T18:14:31.794Z,6.25
2019-04-04T18:16:58.738Z,6.18
2019-04-04T18:19:26.784Z,6.36
2019-04-04T18:21:53.768Z,6.22
2019-04-04T18:24:20.712Z,6.14
2019-04-04T18:26:47.692Z,6.26
2019-04-04T18:29:14.625Z,6.29
2019-04-04T18:31:41.613Z,6.39
2019-04-04T18:34:08.936Z,6.27
2019-04-04T18:36:36.051Z,6.30
2019-04-04T18:39:06.076Z,6.38
2019-04-04T18:41:33.235Z,6.39
2019-04-04T18:44:00.211Z,6.36
2019-04-04T18:46:27.231Z,6.20
2019-04-04T18:48:54.207Z,6.42
2019-04-04T18:51:21.182Z,6.28
2019-04-04T18:53:48.118Z,6.31
2019-04-04T18:56:15.132Z,6.34
2019-04-04T18:58:42.098Z,6.24
2019-04-04T19:01:09.082Z,6.31
2019-04-04T19:03:36.062Z,6.31
2019-04-04T19:06:03.101Z,6.21
2019-04-04T19:08:30.059Z,6.20
2019-04-04T19:10:58.097Z,6.23
2019-04-04T19:13:25.504Z,6.24
2019-04-04T19:15:52.587Z,6.17
2019-04-04T19:18:19.525Z,6.25
2019-04-04T19:20:46.523Z,6.31
2019-04-04T19:23:13.542Z,6.20
2019-04-04T19:25:42.733Z,6.23
2019-04-04T19:28:10.269Z,6.43
2019-04-04T19:30:37.225Z,6.36
2019-04-04T19:33:04.169Z,6.41
2019-04-04T19:35:31.237Z,6.31
2019-04-04T19:38:00.398Z,6.20
2019-04-04T19:40:27.169Z,6.24
2019-04-04T19:42:54.210Z,6.46
2019-04-04T19:45:21.527Z,6.38
2019-04-04T19:47:48.566Z,6.31
2019-04-04T19:50:15.718Z,6.38
2019-04-04T19:52:42.695Z,6.50
2019-04-04T19:55:10.129Z,6.29
2019-04-04T19:57:37.093Z,6.48
2019-04-04T20:00:07.974Z,6.37
2019-04-04T20:02:34.962Z,6.33
2019-04-04T20:05:01.894Z,6.37
2019-04-04T20:07:28.869Z,6.41
2019-04-04T20:09:55.834Z,6.34
2019-04-04T20:12:22.829Z,6.20
2019-04-04T20:14:49.810Z,6.17
2019-04-04T20:17:16.803Z,6.23
2019-04-04T20:19:43.803Z,6.13
2019-04-04T20:22:10.891Z,6.22
2019-04-04T20:24:37.845Z,6.13
2019-04-04T20:27:04.820Z,6.14
2019-04-04T20:29:31.773Z,6.15
2019-04-04T20:31:58.760Z,6.21
2019-04-04T20:34:25.716Z,6.23
2019-04-04T20:36:52.675Z,6.39
2019-04-04T20:39:19.632Z,6.30
2019-04-04T20:41:46.610Z,6.28
2019-04-04T20:44:13.566Z,6.38
2019-04-04T20:46:40.561Z,6.33
2019-04-04T20:49:07.527Z,6.31
2019-04-04T20:51:34.506Z,6.40
2019-04-04T20:54:01.478Z,6.30
2019-04-04T20:56:28.457Z,6.22
2019-04-04T20:58:57.470Z,6.33
2019-04-04T21:01:24.444Z,6.18
2019-04-04T21:03:51.401Z,6.24
2019-04-04T21:06:18.380Z,6.29
2019-04-04T21:08:45.316Z,6.31
2019-04-04T21:11:12.254Z,6.38
2019-04-04T21:13:39.328Z,6.33
2019-04-04T21:16:06.304Z,6.29
2019-04-04T21:18:33.264Z,6.41
2019-04-04T21:21:01.675Z,6.21
2019-04-04T21:23:28.782Z,6.10
2019-04-04T21:25:55.722Z,6.14
2019-04-04T21:28:22.695Z,6.22
2019-04-04T21:30:49.632Z,6.14
2019-04-04T21:33:16.662Z,6.18
2019-04-04T21:35:43.663Z,6.28
2019-04-04T21:38:10.660Z,6.21
2019-04-04T21:40:37.602Z,6.23
2019-04-04T21:43:04.682Z,6.14
2019-04-04T21:45:31.631Z,6.15
2019-04-04T21:47:58.625Z,6.19
2019-04-04T21:50:25.569Z,6.18
2019-04-04T21:52:52.558Z,6.23
2019-04-04T21:55:19.501Z,6.17
2019-04-04T21:57:46.474Z,6.14
2019-04-04T22:00:14.788Z,6.24
2019-04-04T22:02:41.771Z,6.26
2019-04-04T22:05:09.147Z,6.34
2019-04-04T22:07:36.161Z,6.27
2019-04-04T22:10:04.344Z,6.37
2019-04-04T22:12:31.315Z,6.25
2019-04-04T22:14:58.263Z,6.27
2019-04-04T22:17:25.237Z,6.20
2019-04-04T22:19:52.194Z,6.24
2019-04-04T22:22:19.161Z,6.30
2019-04-04T22:24:46.388Z,6.23
2019-04-04T22:27:13.353Z,6.21
2019-04-04T22:29:40.288Z,6.27
2019-04-04T22:32:07.256Z,6.34
2019-04-04T22:34:34.240Z,6.28
2019-04-04T22:37:01.180Z,6.25
2019-04-04T22:39:28.204Z,6.23
2019-04-04T22:41:55.144Z,6.24
2019-04-04T22:44:34.028Z,6.23
2019-04-04T22:46:50.996Z,6.36
2019-04-04T22:49:18.005Z,6.26
2019-04-04T22:51:44.946Z,6.24
2019-04-04T22:54:11.917Z,6.28
2019-04-04T22:56:38.850Z,6.28
2019-04-04T22:59:05.852Z,6.32
2019-04-04T23:01:32.840Z,6.30
2019-04-04T23:03:59.826Z,6.34
2019-04-04T23:06:26.779Z,6.28
2019-04-04T23:08:53.797Z,6.30
2019-04-04T23:11:20.755Z,6.23
2019-04-04T23:13:47.726Z,6.25
2019-04-04T23:16:14.728Z,6.21
2019-04-04T23:18:41.738Z,6.35
2019-04-04T23:21:08.681Z,6.36
2019-04-04T23:23:35.715Z,6.47
2019-04-04T23:26:02.675Z,6.50
2019-04-04T23:28:29.661Z,6.38
2019-04-04T23:30:56.612Z,6.32
2019-04-04T23:33:23.585Z,6.27
2019-04-04T23:35:50.526Z,6.31
2019-04-04T23:38:17.504Z,6.27
2019-04-04T23:40:44.440Z,6.29
2019-04-04T23:43:11.421Z,6.24
2019-04-04T23:45:38.378Z,6.25
2019-04-04T23:48:05.352Z,6.20
2019-04-04T23:50:32.294Z,6.24
2019-04-04T23:52:59.237Z,6.23
2019-04-04T23:55:26.225Z,6.18
2019-04-04T23:57:53.180Z,6.20
